sensor_id;sensor_type;location;lat;lon;timestamp;temperature;humidity
25112;DHT22;13092;51.996;4.458;2023-08-21T01:25:13;20.10;99.90
25112;DHT22;13092;51.996;4.458;2023-08-21T01:27:44;20.00;99.90
25112;DHT22;13092;51.996;4.458;2023-08-21T01:30:13;20.00;99.90
25112;DHT22;13092;51.996;4.458;2023-08-21T01:32:48;20.00;99.90
25112;DHT22;13092;51.996;4.458;2023-08-21T01:35:18;20.00;99.90
25112;DHT22;13092;51.996;4.458;2023-08-21T01:37:48;20.00;99.90
25112;DHT22;13092;51.996;4.458;2023-08-21T01:40:21;20.10;99.90
25112;DHT22;13092;51.996;4.458;2023-08-21T01:42:50;20.10;99.90
25112;DHT22;13092;51.996;4.458;2023-08-21T01:45:18;20.10;99.90
25112;DHT22;13092;51.996;4.458;2023-08-21T01:47:46;20.10;99.90
25112;DHT22;13092;51.996;4.458;2023-08-21T01:50:14;20.10;99.90
25112;DHT22;13092;51.996;4.458;2023-08-21T01:52:43;20.10;99.90
25112;DHT22;13092;51.996;4.458;2023-08-21T01:55:11;20.00;99.90
25112;DHT22;13092;51.996;4.458;2023-08-21T01:57:42;20.10;99.90
25112;DHT22;13092;51.996;4.458;2023-08-21T02:00:12;20.10;99.90
25112;DHT22;13092;51.996;4.458;2023-08-21T02:02:40;20.00;99.90
25112;DHT22;13092;51.996;4.458;2023-08-21T02:05:09;20.00;99.90
25112;DHT22;13092;51.996;4.458;2023-08-21T02:07:38;20.00;99.90
25112;DHT22;13092;51.996;4.458;2023-08-21T02:10:07;20.00;99.90
25112;DHT22;13092;51.996;4.458;2023-08-21T02:12:35;20.00;99.90
25112;DHT22;13092;51.996;4.458;2023-08-21T02:15:09;20.00;99.90
25112;DHT22;13092;51.996;4.458;2023-08-21T02:17:39;20.00;99.90
25112;DHT22;13092;51.996;4.458;2023-08-21T02:20:10;20.00;99.90
25112;DHT22;13092;51.996;4.458;2023-08-21T02:22:39;20.00;99.90
25112;DHT22;13092;51.996;4.458;2023-08-21T02:25:07;20.00;99.90
25112;DHT22;13092;51.996;4.458;2023-08-21T02:27:35;19.90;99.90
25112;DHT22;13092;51.996;4.458;2023-08-21T02:30:04;20.00;99.90
25112;DHT22;13092;51.996;4.458;2023-08-21T02:32:35;19.90;99.90
25112;DHT22;13092;51.996;4.458;2023-08-21T02:35:06;19.90;99.90
25112;DHT22;13092;51.996;4.458;2023-08-21T02:37:34;19.80;99.90
25112;DHT22;13092;51.996;4.458;2023-08-21T02:40:06;19.80;99.90
25112;DHT22;13092;51.996;4.458;2023-08-21T02:42:36;19.80;99.90
25112;DHT22;13092;51.996;4.458;2023-08-21T02:45:05;19.70;99.90
25112;DHT22;13092;51.996;4.458;2023-08-21T02:47:38;19.70;99.90
25112;DHT22;13092;51.996;4.458;2023-08-21T02:50:08;19.70;99.90
25112;DHT22;13092;51.996;4.458;2023-08-21T02:52:37;19.70;99.90
25112;DHT22;13092;51.996;4.458;2023-08-21T02:55:06;19.60;99.90
25112;DHT22;13092;51.996;4.458;2023-08-21T02:57:35;19.60;99.90
25112;DHT22;13092;51.996;4.458;2023-08-21T03:00:05;19.60;99.90
25112;DHT22;13092;51.996;4.458;2023-08-21T03:02:34;19.60;99.90
25112;DHT22;13092;51.996;4.458;2023-08-21T03:05:05;19.50;99.90
25112;DHT22;13092;51.996;4.458;2023-08-21T03:07:34;19.50;99.90
25112;DHT22;13092;51.996;4.458;2023-08-21T03:10:02;19.50;99.90
25112;DHT22;13092;51.996;4.458;2023-08-21T03:12:31;19.50;99.90
25112;DHT22;13092;51.996;4.458;2023-08-21T03:14:59;19.50;99.90
25112;DHT22;13092;51.996;4.458;2023-08-21T03:17:27;19.50;99.90
25112;DHT22;13092;51.996;4.458;2023-08-21T03:19:56;19.40;99.90
25112;DHT22;13092;51.996;4.458;2023-08-21T03:22:25;19.40;99.90
25112;DHT22;13092;51.996;4.458;2023-08-21T03:24:53;19.40;99.90
25112;DHT22;13092;51.996;4.458;2023-08-21T03:27:21;19.40;99.90
25112;DHT22;13092;51.996;4.458;2023-08-21T03:29:50;19.50;99.90
25112;DHT22;13092;51.996;4.458;2023-08-21T03:32:18;19.40;99.90
25112;DHT22;13092;51.996;4.458;2023-08-21T03:34:46;19.40;99.90
25112;DHT22;13092;51.996;4.458;2023-08-21T03:37:14;19.40;99.90
25112;DHT22;13092;51.996;4.458;2023-08-21T03:39:44;19.40;99.90
25112;DHT22;13092;51.996;4.458;2023-08-21T03:42:12;19.30;99.90
25112;DHT22;13092;51.996;4.458;2023-08-21T03:44:40;19.30;99.90
25112;DHT22;13092;51.996;4.458;2023-08-21T03:47:08;19.30;99.90
25112;DHT22;13092;51.996;4.458;2023-08-21T03:49:36;19.30;99.90
25112;DHT22;13092;51.996;4.458;2023-08-21T03:52:05;19.30;99.90
25112;DHT22;13092;51.996;4.458;2023-08-21T03:54:33;19.20;99.90
25112;DHT22;13092;51.996;4.458;2023-08-21T03:57:03;19.20;99.90
25112;DHT22;13092;51.996;4.458;2023-08-21T03:59:31;19.20;99.90
25112;DHT22;13092;51.996;4.458;2023-08-21T04:01:59;19.20;99.90
25112;DHT22;13092;51.996;4.458;2023-08-21T04:04:28;19.20;99.90
25112;DHT22;13092;51.996;4.458;2023-08-21T04:06:56;19.10;99.90
25112;DHT22;13092;51.996;4.458;2023-08-21T04:09:24;19.10;99.90
25112;DHT22;13092;51.996;4.458;2023-08-21T04:11:53;19.10;99.90
25112;DHT22;13092;51.996;4.458;2023-08-21T04:14:22;19.10;99.90
25112;DHT22;13092;51.996;4.458;2023-08-21T04:16:51;19.10;99.90
25112;DHT22;13092;51.996;4.458;2023-08-21T04:19:19;19.00;99.90
25112;DHT22;13092;51.996;4.458;2023-08-21T04:21:47;19.00;99.90
25112;DHT22;13092;51.996;4.458;2023-08-21T04:24:15;19.00;99.90
25112;DHT22;13092;51.996;4.458;2023-08-21T04:26:43;18.90;99.90
25112;DHT22;13092;51.996;4.458;2023-08-21T04:29:12;19.00;99.90
25112;DHT22;13092;51.996;4.458;2023-08-21T04:31:41;19.00;99.90
25112;DHT22;13092;51.996;4.458;2023-08-21T04:34:10;19.00;99.90
25112;DHT22;13092;51.996;4.458;2023-08-21T04:36:38;19.00;99.90
25112;DHT22;13092;51.996;4.458;2023-08-21T04:39:07;19.00;99.90
25112;DHT22;13092;51.996;4.458;2023-08-21T04:41:35;18.90;99.90
25112;DHT22;13092;51.996;4.458;2023-08-21T04:44:04;18.90;99.90
25112;DHT22;13092;51.996;4.458;2023-08-21T04:46:32;18.90;99.90
25112;DHT22;13092;51.996;4.458;2023-08-21T04:49:02;18.90;99.90
25112;DHT22;13092;51.996;4.458;2023-08-21T04:51:30;18.90;99.90
25112;DHT22;13092;51.996;4.458;2023-08-21T04:53:59;18.90;99.90
25112;DHT22;13092;51.996;4.458;2023-08-21T04:56:27;18.90;99.90
25112;DHT22;13092;51.996;4.458;2023-08-21T04:58:55;18.80;99.90
25112;DHT22;13092;51.996;4.458;2023-08-21T05:01:24;18.90;99.90
25112;DHT22;13092;51.996;4.458;2023-08-21T05:03:52;19.00;99.90
25112;DHT22;13092;51.996;4.458;2023-08-21T05:06:22;18.90;99.90
25112;DHT22;13092;51.996;4.458;2023-08-21T05:08:50;18.90;99.90
25112;DHT22;13092;51.996;4.458;2023-08-21T05:11:18;18.90;99.90
25112;DHT22;13092;51.996;4.458;2023-08-21T05:13:52;19.00;99.90
25112;DHT22;13092;51.996;4.458;2023-08-21T05:16:20;19.00;99.90
25112;DHT22;13092;51.996;4.458;2023-08-21T05:18:48;19.00;99.90
25112;DHT22;13092;51.996;4.458;2023-08-21T05:21:17;19.00;99.90
25112;DHT22;13092;51.996;4.458;2023-08-21T05:23:46;19.00;99.90
25112;DHT22;13092;51.996;4.458;2023-08-21T05:26:15;18.90;99.90
25112;DHT22;13092;51.996;4.458;2023-08-21T05:28:43;19.00;99.90
25112;DHT22;13092;51.996;4.458;2023-08-21T05:31:11;19.10;99.90
25112;DHT22;13092;51.996;4.458;2023-08-21T05:33:39;19.10;99.90
25112;DHT22;13092;51.996;4.458;2023-08-21T05:36:08;19.10;99.90
25112;DHT22;13092;51.996;4.458;2023-08-21T05:38:36;19.20;99.90
25112;DHT22;13092;51.996;4.458;2023-08-21T05:41:05;19.20;99.90
25112;DHT22;13092;51.996;4.458;2023-08-21T05:43:34;19.30;99.90
25112;DHT22;13092;51.996;4.458;2023-08-21T05:46:02;19.30;99.90
25112;DHT22;13092;51.996;4.458;2023-08-21T05:48:33;19.40;99.90
25112;DHT22;13092;51.996;4.458;2023-08-21T05:51:02;19.40;99.90
25112;DHT22;13092;51.996;4.458;2023-08-21T05:53:31;19.40;99.90
25112;DHT22;13092;51.996;4.458;2023-08-21T05:55:59;19.50;99.90
25112;DHT22;13092;51.996;4.458;2023-08-21T05:58:29;19.50;99.90
25112;DHT22;13092;51.996;4.458;2023-08-21T06:00:59;19.60;99.90
25112;DHT22;13092;51.996;4.458;2023-08-21T06:03:27;19.60;99.90
25112;DHT22;13092;51.996;4.458;2023-08-21T06:05:56;19.60;99.90
25112;DHT22;13092;51.996;4.458;2023-08-21T06:08:24;19.70;99.90
25112;DHT22;13092;51.996;4.458;2023-08-21T06:10:53;19.70;99.90
25112;DHT22;13092;51.996;4.458;2023-08-21T06:13:21;19.80;99.90
25112;DHT22;13092;51.996;4.458;2023-08-21T06:15:51;19.90;99.90
25112;DHT22;13092;51.996;4.458;2023-08-21T06:18:19;20.00;99.90
25112;DHT22;13092;51.996;4.458;2023-08-21T06:20:51;19.90;99.90
25112;DHT22;13092;51.996;4.458;2023-08-21T06:23:20;19.90;99.90
25112;DHT22;13092;51.996;4.458;2023-08-21T06:25:49;20.00;99.90
25112;DHT22;13092;51.996;4.458;2023-08-21T06:28:17;20.00;99.90
25112;DHT22;13092;51.996;4.458;2023-08-21T06:30:46;20.10;99.90
25112;DHT22;13092;51.996;4.458;2023-08-21T06:33:15;20.10;99.90
25112;DHT22;13092;51.996;4.458;2023-08-21T06:35:43;20.20;99.90
25112;DHT22;13092;51.996;4.458;2023-08-21T06:38:11;20.20;99.90
25112;DHT22;13092;51.996;4.458;2023-08-21T06:40:40;20.20;99.90
25112;DHT22;13092;51.996;4.458;2023-08-21T06:43:08;20.30;99.90
25112;DHT22;13092;51.996;4.458;2023-08-21T06:45:36;20.40;99.90
25112;DHT22;13092;51.996;4.458;2023-08-21T06:48:04;20.50;99.90
25112;DHT22;13092;51.996;4.458;2023-08-21T06:50:36;20.50;99.90
25112;DHT22;13092;51.996;4.458;2023-08-21T06:53:04;20.60;99.90
25112;DHT22;13092;51.996;4.458;2023-08-21T06:55:32;20.70;99.90
25112;DHT22;13092;51.996;4.458;2023-08-21T06:58:01;20.70;99.90
25112;DHT22;13092;51.996;4.458;2023-08-21T07:00:29;20.80;99.90
25112;DHT22;13092;51.996;4.458;2023-08-21T07:02:57;20.90;99.90
25112;DHT22;13092;51.996;4.458;2023-08-21T07:05:26;20.90;99.90
25112;DHT22;13092;51.996;4.458;2023-08-21T07:07:55;20.90;99.90
25112;DHT22;13092;51.996;4.458;2023-08-21T07:10:23;21.00;99.90
25112;DHT22;13092;51.996;4.458;2023-08-21T07:12:53;21.00;99.90
25112;DHT22;13092;51.996;4.458;2023-08-21T07:15:21;21.10;99.90
25112;DHT22;13092;51.996;4.458;2023-08-21T07:17:50;21.10;99.90
25112;DHT22;13092;51.996;4.458;2023-08-21T07:20:18;21.10;99.90
25112;DHT22;13092;51.996;4.458;2023-08-21T07:22:46;21.10;99.90
25112;DHT22;13092;51.996;4.458;2023-08-21T07:25:16;21.20;99.90
25112;DHT22;13092;51.996;4.458;2023-08-21T07:27:46;21.20;99.90
25112;DHT22;13092;51.996;4.458;2023-08-21T07:30:16;21.20;99.90
25112;DHT22;13092;51.996;4.458;2023-08-21T07:32:46;21.30;99.90
25112;DHT22;13092;51.996;4.458;2023-08-21T07:35:14;21.40;99.90
25112;DHT22;13092;51.996;4.458;2023-08-21T07:37:43;21.40;99.90
25112;DHT22;13092;51.996;4.458;2023-08-21T07:40:11;21.40;99.90
25112;DHT22;13092;51.996;4.458;2023-08-21T07:42:41;21.50;99.90
25112;DHT22;13092;51.996;4.458;2023-08-21T07:45:10;21.50;99.90
25112;DHT22;13092;51.996;4.458;2023-08-21T07:47:38;21.60;99.90
25112;DHT22;13092;51.996;4.458;2023-08-21T07:50:07;21.60;99.90
25112;DHT22;13092;51.996;4.458;2023-08-21T07:52:36;21.60;99.90
25112;DHT22;13092;51.996;4.458;2023-08-21T07:55:05;21.70;99.90
25112;DHT22;13092;51.996;4.458;2023-08-21T07:57:34;21.70;99.90
25112;DHT22;13092;51.996;4.458;2023-08-21T08:00:05;21.70;99.90
25112;DHT22;13092;51.996;4.458;2023-08-21T08:02:36;21.70;99.90
25112;DHT22;13092;51.996;4.458;2023-08-21T08:05:05;21.70;99.90
25112;DHT22;13092;51.996;4.458;2023-08-21T08:07:34;21.70;99.90
25112;DHT22;13092;51.996;4.458;2023-08-21T08:10:02;21.80;99.90
25112;DHT22;13092;51.996;4.458;2023-08-21T08:12:31;21.90;99.90
25112;DHT22;13092;51.996;4.458;2023-08-21T08:15:00;21.90;99.90
25112;DHT22;13092;51.996;4.458;2023-08-21T08:17:30;21.90;99.90
25112;DHT22;13092;51.996;4.458;2023-08-21T08:19:58;22.00;99.90
25112;DHT22;13092;51.996;4.458;2023-08-21T08:22:26;22.00;99.90
25112;DHT22;13092;51.996;4.458;2023-08-21T08:24:54;22.10;99.90
25112;DHT22;13092;51.996;4.458;2023-08-21T08:27:23;22.10;99.90
25112;DHT22;13092;51.996;4.458;2023-08-21T08:29:51;22.10;99.90
25112;DHT22;13092;51.996;4.458;2023-08-21T08:32:20;22.20;99.90
25112;DHT22;13092;51.996;4.458;2023-08-21T08:34:50;22.20;99.90
25112;DHT22;13092;51.996;4.458;2023-08-21T08:37:18;22.30;99.90
25112;DHT22;13092;51.996;4.458;2023-08-21T08:39:46;22.40;99.90
25112;DHT22;13092;51.996;4.458;2023-08-21T08:42:15;22.50;99.90
25112;DHT22;13092;51.996;4.458;2023-08-21T08:44:44;22.50;99.90
25112;DHT22;13092;51.996;4.458;2023-08-21T08:47:12;22.60;99.90
25112;DHT22;13092;51.996;4.458;2023-08-21T08:49:41;22.70;99.90
25112;DHT22;13092;51.996;4.458;2023-08-21T08:52:11;22.90;99.90
25112;DHT22;13092;51.996;4.458;2023-08-21T08:54:40;23.00;99.90
25112;DHT22;13092;51.996;4.458;2023-08-21T08:57:08;23.10;99.90
25112;DHT22;13092;51.996;4.458;2023-08-21T08:59:36;23.10;99.90
25112;DHT22;13092;51.996;4.458;2023-08-21T09:02:04;23.10;99.90
25112;DHT22;13092;51.996;4.458;2023-08-21T09:04:33;23.20;99.90
25112;DHT22;13092;51.996;4.458;2023-08-21T09:07:07;23.20;99.90
25112;DHT22;13092;51.996;4.458;2023-08-21T09:09:40;23.30;99.90
25112;DHT22;13092;51.996;4.458;2023-08-21T09:12:13;23.30;99.90
25112;DHT22;13092;51.996;4.458;2023-08-21T09:14:43;23.40;99.90
25112;DHT22;13092;51.996;4.458;2023-08-21T09:17:13;23.50;99.90
25112;DHT22;13092;51.996;4.458;2023-08-21T09:19:42;23.50;99.90
25112;DHT22;13092;51.996;4.458;2023-08-21T09:22:13;23.60;99.90
25112;DHT22;13092;51.996;4.458;2023-08-21T09:25:01;23.60;99.90
25112;DHT22;13092;51.996;4.458;2023-08-21T09:27:34;23.60;99.90
25112;DHT22;13092;51.996;4.458;2023-08-21T09:30:04;23.70;99.90
25112;DHT22;13092;51.996;4.458;2023-08-21T09:32:52;23.70;99.90
25112;DHT22;13092;51.996;4.458;2023-08-21T09:35:22;23.80;99.90
25112;DHT22;13092;51.996;4.458;2023-08-21T09:37:50;23.80;99.90
25112;DHT22;13092;51.996;4.458;2023-08-21T09:40:21;24.10;99.90
25112;DHT22;13092;51.996;4.458;2023-08-21T09:42:52;24.20;99.90
25112;DHT22;13092;51.996;4.458;2023-08-21T09:45:21;24.20;99.90
25112;DHT22;13092;51.996;4.458;2023-08-21T09:47:50;24.20;99.90
25112;DHT22;13092;51.996;4.458;2023-08-21T09:50:20;24.30;99.90
25112;DHT22;13092;51.996;4.458;2023-08-21T09:52:50;24.50;99.90
25112;DHT22;13092;51.996;4.458;2023-08-21T09:55:23;24.60;99.90
25112;DHT22;13092;51.996;4.458;2023-08-21T09:57:53;24.80;99.90
25112;DHT22;13092;51.996;4.458;2023-08-21T10:00:28;24.90;99.90
25112;DHT22;13092;51.996;4.458;2023-08-21T10:03:00;25.00;99.90
25112;DHT22;13092;51.996;4.458;2023-08-21T10:05:30;25.00;99.90
25112;DHT22;13092;51.996;4.458;2023-08-21T10:08:01;25.10;99.90
25112;DHT22;13092;51.996;4.458;2023-08-21T10:10:33;25.30;99.90
25112;DHT22;13092;51.996;4.458;2023-08-21T10:13:03;25.40;99.90
25112;DHT22;13092;51.996;4.458;2023-08-21T10:15:33;25.60;99.90
25112;DHT22;13092;51.996;4.458;2023-08-21T10:18:20;25.70;99.90
25112;DHT22;13092;51.996;4.458;2023-08-21T10:20:49;25.90;99.90
25112;DHT22;13092;51.996;4.458;2023-08-21T10:23:28;26.00;99.90
25112;DHT22;13092;51.996;4.458;2023-08-21T10:26:00;26.10;99.90
25112;DHT22;13092;51.996;4.458;2023-08-21T10:28:50;26.40;99.90
25112;DHT22;13092;51.996;4.458;2023-08-21T10:31:26;26.20;99.90
25112;DHT22;13092;51.996;4.458;2023-08-21T10:33:56;26.10;99.90
25112;DHT22;13092;51.996;4.458;2023-08-21T10:36:39;26.10;99.90
25112;DHT22;13092;51.996;4.458;2023-08-21T10:39:14;26.00;99.90
25112;DHT22;13092;51.996;4.458;2023-08-21T10:42:00;26.10;99.90
25112;DHT22;13092;51.996;4.458;2023-08-21T10:44:36;26.00;99.90
25112;DHT22;13092;51.996;4.458;2023-08-21T10:47:19;25.90;99.90
25112;DHT22;13092;51.996;4.458;2023-08-21T10:49:49;26.00;99.90
25112;DHT22;13092;51.996;4.458;2023-08-21T10:52:22;26.40;99.90
25112;DHT22;13092;51.996;4.458;2023-08-21T10:54:52;26.50;99.90
25112;DHT22;13092;51.996;4.458;2023-08-21T10:57:24;26.70;99.90
25112;DHT22;13092;51.996;4.458;2023-08-21T10:59:55;26.60;99.90
25112;DHT22;13092;51.996;4.458;2023-08-21T11:02:24;26.60;99.90
25112;DHT22;13092;51.996;4.458;2023-08-21T11:04:53;26.80;99.90
25112;DHT22;13092;51.996;4.458;2023-08-21T11:07:22;26.70;99.90
25112;DHT22;13092;51.996;4.458;2023-08-21T11:09:53;26.70;99.90
25112;DHT22;13092;51.996;4.458;2023-08-21T11:12:24;26.80;99.90
25112;DHT22;13092;51.996;4.458;2023-08-21T11:14:53;26.90;99.90
25112;DHT22;13092;51.996;4.458;2023-08-21T11:17:21;27.10;99.90
25112;DHT22;13092;51.996;4.458;2023-08-21T11:19:50;27.30;99.90
25112;DHT22;13092;51.996;4.458;2023-08-21T11:22:19;27.40;99.90
25112;DHT22;13092;51.996;4.458;2023-08-21T11:24:48;27.40;99.90
25112;DHT22;13092;51.996;4.458;2023-08-21T11:27:18;27.50;99.90
25112;DHT22;13092;51.996;4.458;2023-08-21T11:29:52;27.50;99.90
25112;DHT22;13092;51.996;4.458;2023-08-21T11:32:22;27.50;99.90
25112;DHT22;13092;51.996;4.458;2023-08-21T11:34:52;27.50;99.90
25112;DHT22;13092;51.996;4.458;2023-08-21T11:37:23;27.30;99.90
25112;DHT22;13092;51.996;4.458;2023-08-21T11:39:53;27.20;99.90
25112;DHT22;13092;51.996;4.458;2023-08-21T11:42:29;27.30;99.90
25112;DHT22;13092;51.996;4.458;2023-08-21T11:45:00;27.30;99.90
25112;DHT22;13092;51.996;4.458;2023-08-21T11:47:32;27.30;99.90
25112;DHT22;13092;51.996;4.458;2023-08-21T11:50:02;27.20;99.90
25112;DHT22;13092;51.996;4.458;2023-08-21T11:52:32;27.30;99.90
25112;DHT22;13092;51.996;4.458;2023-08-21T11:55:02;27.40;99.90
25112;DHT22;13092;51.996;4.458;2023-08-21T11:57:49;27.30;99.90
25112;DHT22;13092;51.996;4.458;2023-08-21T12:00:28;27.40;99.90
25112;DHT22;13092;51.996;4.458;2023-08-21T12:02:58;27.70;99.90
25112;DHT22;13092;51.996;4.458;2023-08-21T12:05:45;27.90;99.90
25112;DHT22;13092;51.996;4.458;2023-08-21T12:08:14;28.00;99.90
25112;DHT22;13092;51.996;4.458;2023-08-21T12:10:42;27.70;99.90
25112;DHT22;13092;51.996;4.458;2023-08-21T12:13:10;27.60;99.90
25112;DHT22;13092;51.996;4.458;2023-08-21T12:15:40;27.50;99.90
25112;DHT22;13092;51.996;4.458;2023-08-21T12:18:09;27.50;99.90
25112;DHT22;13092;51.996;4.458;2023-08-21T12:20:37;27.50;99.90
25112;DHT22;13092;51.996;4.458;2023-08-21T12:23:05;27.40;99.90
25112;DHT22;13092;51.996;4.458;2023-08-21T12:25:33;27.40;99.90
25112;DHT22;13092;51.996;4.458;2023-08-21T12:28:02;27.40;99.90
25112;DHT22;13092;51.996;4.458;2023-08-21T12:30:36;27.50;99.90
25112;DHT22;13092;51.996;4.458;2023-08-21T12:33:06;27.70;99.90
25112;DHT22;13092;51.996;4.458;2023-08-21T12:35:48;27.60;99.90
25112;DHT22;13092;51.996;4.458;2023-08-21T12:48:59;27.20;99.90
25112;DHT22;13092;51.996;4.458;2023-08-21T12:51:30;27.10;99.90
25112;DHT22;13092;51.996;4.458;2023-08-21T12:53:58;27.10;99.90
25112;DHT22;13092;51.996;4.458;2023-08-21T12:56:52;27.20;99.90
25112;DHT22;13092;51.996;4.458;2023-08-21T13:00:12;27.40;99.90
25112;DHT22;13092;51.996;4.458;2023-08-21T13:10:40;27.10;99.90
25112;DHT22;13092;51.996;4.458;2023-08-21T13:13:09;27.10;99.90
25112;DHT22;13092;51.996;4.458;2023-08-21T13:16:39;27.00;99.90
25112;DHT22;13092;51.996;4.458;2023-08-21T13:22:58;27.00;99.90
25112;DHT22;13092;51.996;4.458;2023-08-21T13:29:13;27.00;99.90
25112;DHT22;13092;51.996;4.458;2023-08-21T13:37:06;27.10;99.90
25112;DHT22;13092;51.996;4.458;2023-08-21T13:43:41;27.10;99.90
25112;DHT22;13092;51.996;4.458;2023-08-21T14:49:30;26.60;99.90
25112;DHT22;13092;51.996;4.458;2023-08-21T15:37:47;27.00;99.90
25112;DHT22;13092;51.996;4.458;2023-08-21T17:16:46;27.90;99.90
25112;DHT22;13092;51.996;4.458;2023-08-21T19:04:40;24.90;99.90
25112;DHT22;13092;51.996;4.458;2023-08-21T19:07:09;24.80;99.90
25112;DHT22;13092;51.996;4.458;2023-08-21T19:09:37;24.70;99.90
25112;DHT22;13092;51.996;4.458;2023-08-21T19:12:06;24.60;99.90
25112;DHT22;13092;51.996;4.458;2023-08-21T19:15:02;24.60;99.90
25112;DHT22;13092;51.996;4.458;2023-08-21T19:17:32;24.60;99.90
25112;DHT22;13092;51.996;4.458;2023-08-21T19:20:02;24.50;99.90
25112;DHT22;13092;51.996;4.458;2023-08-21T19:22:33;24.50;99.90
25112;DHT22;13092;51.996;4.458;2023-08-21T19:25:07;24.40;99.90
25112;DHT22;13092;51.996;4.458;2023-08-21T19:27:44;24.40;99.90
25112;DHT22;13092;51.996;4.458;2023-08-21T19:33:48;24.30;99.90
25112;DHT22;13092;51.996;4.458;2023-08-21T19:36:18;24.30;99.90
25112;DHT22;13092;51.996;4.458;2023-08-21T19:39:08;24.10;99.90
25112;DHT22;13092;51.996;4.458;2023-08-21T19:41:36;24.10;99.90
25112;DHT22;13092;51.996;4.458;2023-08-21T19:48:15;23.90;99.90
25112;DHT22;13092;51.996;4.458;2023-08-21T19:50:43;23.90;99.90
25112;DHT22;13092;51.996;4.458;2023-08-21T19:53:13;23.80;99.90
25112;DHT22;13092;51.996;4.458;2023-08-21T19:55:42;23.80;99.90
25112;DHT22;13092;51.996;4.458;2023-08-21T20:01:55;23.60;99.90
25112;DHT22;13092;51.996;4.458;2023-08-21T20:05:34;23.40;99.90
25112;DHT22;13092;51.996;4.458;2023-08-21T20:08:05;23.30;99.90
25112;DHT22;13092;51.996;4.458;2023-08-21T20:10:39;23.20;99.90
25112;DHT22;13092;51.996;4.458;2023-08-21T20:13:26;23.20;99.90
25112;DHT22;13092;51.996;4.458;2023-08-21T20:16:02;23.10;99.90
25112;DHT22;13092;51.996;4.458;2023-08-21T20:18:49;23.00;99.90
25112;DHT22;13092;51.996;4.458;2023-08-21T20:21:25;22.90;99.90
25112;DHT22;13092;51.996;4.458;2023-08-21T20:23:57;22.80;99.90
25112;DHT22;13092;51.996;4.458;2023-08-21T20:26:42;22.80;99.90
25112;DHT22;13092;51.996;4.458;2023-08-21T20:29:10;22.80;99.90
25112;DHT22;13092;51.996;4.458;2023-08-21T20:31:41;22.70;99.90
25112;DHT22;13092;51.996;4.458;2023-08-21T20:34:10;22.70;99.90
25112;DHT22;13092;51.996;4.458;2023-08-21T20:36:39;22.70;99.90
25112;DHT22;13092;51.996;4.458;2023-08-21T20:39:08;22.70;99.90
25112;DHT22;13092;51.996;4.458;2023-08-21T20:42:02;22.70;99.90
25112;DHT22;13092;51.996;4.458;2023-08-21T20:44:30;22.70;99.90
